sensor_id;sensor_type;location;lat;lon;timestamp;pressure;altitude;pressure_sealevel;temperature;humidity
58668;BME280;59852;43.086;25.634;2023-04-29T00:00:31;99077.03;;;5.58;77.18
58668;BME280;59852;43.086;25.634;2023-04-29T00:02:56;99078.28;;;5.68;77.49
58668;BME280;59852;43.086;25.634;2023-04-29T00:05:22;99080.88;;;5.68;76.72
58668;BME280;59852;43.086;25.634;2023-04-29T00:07:47;99087.53;;;5.55;76.83
58668;BME280;59852;43.086;25.634;2023-04-29T00:10:12;99089.00;;;5.80;76.57
58668;BME280;59852;43.086;25.634;2023-04-29T00:12:39;99088.38;;;5.56;76.77
58668;BME280;59852;43.086;25.634;2023-04-29T00:15:05;99081.38;;;5.58;76.99
58668;BME280;59852;43.086;25.634;2023-04-29T00:17:30;99086.44;;;5.42;77.57
58668;BME280;59852;43.086;25.634;2023-04-29T00:19:56;99086.84;;;5.52;77.89
58668;BME280;59852;43.086;25.634;2023-04-29T00:22:21;99083.97;;;5.58;76.94
58668;BME280;59852;43.086;25.634;2023-04-29T00:24:47;99094.34;;;5.58;76.70
58668;BME280;59852;43.086;25.634;2023-04-29T00:27:12;99087.53;;;5.55;77.37
58668;BME280;59852;43.086;25.634;2023-04-29T00:29:37;99081.38;;;5.58;77.31
58668;BME280;59852;43.086;25.634;2023-04-29T00:32:03;99082.94;;;5.62;76.74
58668;BME280;59852;43.086;25.634;2023-04-29T00:34:29;99068.28;;;5.61;77.00
58668;BME280;59852;43.086;25.634;2023-04-29T00:36:54;99073.22;;;5.84;75.97
58668;BME280;59852;43.086;25.634;2023-04-29T00:39:19;99073.50;;;5.78;75.98
58668;BME280;59852;43.086;25.634;2023-04-29T00:41:45;99073.38;;;5.43;76.53
58668;BME280;59852;43.086;25.634;2023-04-29T00:44:10;99068.38;;;5.39;76.62
58668;BME280;59852;43.086;25.634;2023-04-29T00:46:35;99062.94;;;5.45;76.35
58668;BME280;59852;43.086;25.634;2023-04-29T00:49:01;99064.28;;;5.54;76.68
58668;BME280;59852;43.086;25.634;2023-04-29T00:51:26;99064.63;;;5.46;76.99
58668;BME280;59852;43.086;25.634;2023-04-29T00:53:52;99056.41;;;5.36;76.51
58668;BME280;59852;43.086;25.634;2023-04-29T00:56:18;99052.56;;;5.45;76.88
58668;BME280;59852;43.086;25.634;2023-04-29T00:58:45;99055.00;;;5.29;77.01
58668;BME280;59852;43.086;25.634;2023-04-29T01:01:14;99056.38;;;5.17;77.77
58668;BME280;59852;43.086;25.634;2023-04-29T01:03:40;99052.69;;;5.23;78.30
58668;BME280;59852;43.086;25.634;2023-04-29T01:08:49;99047.47;;;5.04;78.66
58668;BME280;59852;43.086;25.634;2023-04-29T01:11:18;99044.81;;;5.06;78.85
58668;BME280;59852;43.086;25.634;2023-04-29T01:16:28;99039.97;;;5.17;78.11
58668;BME280;59852;43.086;25.634;2023-04-29T01:18:58;99045.13;;;5.37;77.61
58668;BME280;59852;43.086;25.634;2023-04-29T01:21:26;99046.84;;;5.18;77.32
58668;BME280;59852;43.086;25.634;2023-04-29T01:23:52;99048.53;;;5.19;77.54
58668;BME280;59852;43.086;25.634;2023-04-29T01:26:23;99037.88;;;5.06;77.18
58668;BME280;59852;43.086;25.634;2023-04-29T01:29:01;99037.06;;;5.25;77.46
58668;BME280;59852;43.086;25.634;2023-04-29T01:44:26;99027.44;;;5.08;77.10
58668;BME280;59852;43.086;25.634;2023-04-29T01:46:53;99035.06;;;5.11;76.92
58668;BME280;59852;43.086;25.634;2023-04-29T01:49:19;99027.66;;;5.03;77.16
58668;BME280;59852;43.086;25.634;2023-04-29T01:51:44;99025.50;;;5.13;77.44
58668;BME280;59852;43.086;25.634;2023-04-29T01:54:10;99026.28;;;4.95;78.11
58668;BME280;59852;43.086;25.634;2023-04-29T01:56:35;99016.13;;;4.90;77.95
58668;BME280;59852;43.086;25.634;2023-04-29T01:59:01;99025.41;;;5.14;77.43
58668;BME280;59852;43.086;25.634;2023-04-29T02:01:26;99032.50;;;4.90;78.25
58668;BME280;59852;43.086;25.634;2023-04-29T02:03:51;99031.19;;;4.82;78.82
58668;BME280;59852;43.086;25.634;2023-04-29T02:06:17;99032.31;;;4.95;78.37
58668;BME280;59852;43.086;25.634;2023-04-29T02:08:42;99025.97;;;5.02;78.25
58668;BME280;59852;43.086;25.634;2023-04-29T02:11:07;99024.94;;;4.86;78.43
58668;BME280;59852;43.086;25.634;2023-04-29T02:13:33;99022.13;;;4.90;78.79
58668;BME280;59852;43.086;25.634;2023-04-29T02:16:05;99018.34;;;4.79;79.07
58668;BME280;59852;43.086;25.634;2023-04-29T02:18:31;99020.63;;;5.05;78.41
58668;BME280;59852;43.086;25.634;2023-04-29T02:20:59;99027.66;;;5.03;77.41
58668;BME280;59852;43.086;25.634;2023-04-29T02:23:25;99029.72;;;4.95;77.32
58668;BME280;59852;43.086;25.634;2023-04-29T02:25:51;99029.31;;;4.45;79.51
58668;BME280;59852;43.086;25.634;2023-04-29T02:28:16;99026.25;;;4.76;79.37
58668;BME280;59852;43.086;25.634;2023-04-29T02:30:42;99020.66;;;4.85;78.60
58668;BME280;59852;43.086;25.634;2023-04-29T02:33:07;99024.69;;;4.51;78.66
58668;BME280;59852;43.086;25.634;2023-04-29T02:35:33;99015.97;;;4.74;79.47
58668;BME280;59852;43.086;25.634;2023-04-29T02:37:58;99014.75;;;4.81;77.89
58668;BME280;59852;43.086;25.634;2023-04-29T02:40:23;99010.22;;;4.86;77.92
58668;BME280;59852;43.086;25.634;2023-04-29T02:42:50;99001.03;;;4.79;77.54
58668;BME280;59852;43.086;25.634;2023-04-29T02:45:15;99012.44;;;4.75;77.20
58668;BME280;59852;43.086;25.634;2023-04-29T02:47:41;99013.75;;;4.85;76.68
58668;BME280;59852;43.086;25.634;2023-04-29T02:50:06;99013.53;;;4.70;77.60
58668;BME280;59852;43.086;25.634;2023-04-29T02:52:32;99015.63;;;4.82;77.33
58668;BME280;59852;43.086;25.634;2023-04-29T02:54:57;99012.00;;;4.66;77.93
58668;BME280;59852;43.086;25.634;2023-04-29T02:57:22;99002.75;;;4.60;78.40
58668;BME280;59852;43.086;25.634;2023-04-29T02:59:48;99004.25;;;4.66;78.00
58668;BME280;59852;43.086;25.634;2023-04-29T03:02:13;99005.22;;;4.63;78.59
58668;BME280;59852;43.086;25.634;2023-04-29T03:04:39;99003.31;;;4.67;78.52
58668;BME280;59852;43.086;25.634;2023-04-29T03:07:04;99006.25;;;4.59;78.23
58668;BME280;59852;43.086;25.634;2023-04-29T03:09:29;99006.69;;;4.48;78.14
58668;BME280;59852;43.086;25.634;2023-04-29T03:11:55;99002.88;;;4.57;77.68
58668;BME280;59852;43.086;25.634;2023-04-29T03:14:21;99017.72;;;4.33;77.95
58668;BME280;59852;43.086;25.634;2023-04-29T03:16:46;99016.84;;;4.32;78.75
58668;BME280;59852;43.086;25.634;2023-04-29T03:19:11;99016.81;;;4.54;79.12
58668;BME280;59852;43.086;25.634;2023-04-29T03:21:37;99010.91;;;4.51;78.04
58668;BME280;59852;43.086;25.634;2023-04-29T03:24:02;99013.03;;;4.41;78.16
58668;BME280;59852;43.086;25.634;2023-04-29T03:26:27;99022.38;;;4.45;77.62
58668;BME280;59852;43.086;25.634;2023-04-29T03:28:53;99020.50;;;4.49;77.50
58668;BME280;59852;43.086;25.634;2023-04-29T03:31:18;99020.16;;;4.56;77.22
58668;BME280;59852;43.086;25.634;2023-04-29T03:33:45;99022.75;;;4.56;77.66
58668;BME280;59852;43.086;25.634;2023-04-29T03:36:10;99019.91;;;4.63;77.56
58668;BME280;59852;43.086;25.634;2023-04-29T03:38:36;99023.53;;;4.58;77.73
58668;BME280;59852;43.086;25.634;2023-04-29T03:41:01;99030.91;;;4.68;77.72
58668;BME280;59852;43.086;25.634;2023-04-29T03:43:26;99030.72;;;4.72;77.66
58668;BME280;59852;43.086;25.634;2023-04-29T03:45:52;99032.06;;;4.60;77.75
58668;BME280;59852;43.086;25.634;2023-04-29T03:48:17;99031.22;;;4.80;78.14
58668;BME280;59852;43.086;25.634;2023-04-29T03:50:44;99035.59;;;4.99;78.81
58668;BME280;59852;43.086;25.634;2023-04-29T03:53:10;99036.75;;;4.93;78.56
58668;BME280;59852;43.086;25.634;2023-04-29T03:55:35;99037.03;;;5.06;77.28
58668;BME280;59852;43.086;25.634;2023-04-29T03:58:01;99036.97;;;5.07;76.78
58668;BME280;59852;43.086;25.634;2023-04-29T04:00:26;99036.34;;;4.61;79.11
58668;BME280;59852;43.086;25.634;2023-04-29T04:02:55;99043.47;;;4.77;79.76
58668;BME280;59852;43.086;25.634;2023-04-29T04:05:20;99043.84;;;5.27;77.31
58668;BME280;59852;43.086;25.634;2023-04-29T04:07:49;99047.34;;;5.26;78.76
58668;BME280;59852;43.086;25.634;2023-04-29T04:10:14;99043.38;;;5.57;76.72
58668;BME280;59852;43.086;25.634;2023-04-29T04:12:40;99049.97;;;5.45;76.22
58668;BME280;59852;43.086;25.634;2023-04-29T04:15:05;99042.25;;;5.43;76.75
58668;BME280;59852;43.086;25.634;2023-04-29T04:17:30;99045.25;;;5.15;78.46
58668;BME280;59852;43.086;25.634;2023-04-29T04:19:56;99045.97;;;5.57;76.49
58668;BME280;59852;43.086;25.634;2023-04-29T04:22:21;99048.13;;;5.66;74.00
58668;BME280;59852;43.086;25.634;2023-04-29T04:24:46;99043.34;;;5.38;75.30
58668;BME280;59852;43.086;25.634;2023-04-29T04:27:12;99046.81;;;5.95;74.46
58668;BME280;59852;43.086;25.634;2023-04-29T04:29:37;99043.69;;;5.87;73.20
58668;BME280;59852;43.086;25.634;2023-04-29T04:32:03;99043.75;;;6.04;72.76
58668;BME280;59852;43.086;25.634;2023-04-29T04:34:28;99041.44;;;6.51;71.38
58668;BME280;59852;43.086;25.634;2023-04-29T04:36:53;99045.88;;;6.49;70.56
58668;BME280;59852;43.086;25.634;2023-04-29T04:39:19;99033.56;;;6.53;71.63
58668;BME280;59852;43.086;25.634;2023-04-29T04:41:44;99044.34;;;6.63;72.24
58668;BME280;59852;43.086;25.634;2023-04-29T04:44:09;99037.97;;;6.68;71.56
58668;BME280;59852;43.086;25.634;2023-04-29T04:46:35;99041.97;;;6.58;72.44
58668;BME280;59852;43.086;25.634;2023-04-29T04:49:01;99051.66;;;6.89;72.08
58668;BME280;59852;43.086;25.634;2023-04-29T04:51:26;99043.06;;;7.04;71.89
58668;BME280;59852;43.086;25.634;2023-04-29T04:53:53;99045.75;;;7.03;70.91
58668;BME280;59852;43.086;25.634;2023-04-29T04:56:18;99042.69;;;6.95;71.54
58668;BME280;59852;43.086;25.634;2023-04-29T04:58:43;99047.91;;;6.77;71.79
58668;BME280;59852;43.086;25.634;2023-04-29T05:01:09;99053.19;;;6.76;72.90
58668;BME280;59852;43.086;25.634;2023-04-29T05:03:34;99050.41;;;6.96;71.36
58668;BME280;59852;43.086;25.634;2023-04-29T05:05:59;99048.31;;;7.20;70.62
58668;BME280;59852;43.086;25.634;2023-04-29T05:08:25;99050.81;;;7.22;71.32
58668;BME280;59852;43.086;25.634;2023-04-29T05:10:51;99044.13;;;7.33;71.20
58668;BME280;59852;43.086;25.634;2023-04-29T05:13:16;99045.44;;;7.58;69.76
58668;BME280;59852;43.086;25.634;2023-04-29T05:15:42;99051.38;;;7.60;69.79
58668;BME280;59852;43.086;25.634;2023-04-29T05:18:07;99044.66;;;7.40;70.52
58668;BME280;59852;43.086;25.634;2023-04-29T05:20:33;99047.00;;;7.29;70.87
58668;BME280;59852;43.086;25.634;2023-04-29T05:22:58;99040.72;;;7.15;71.64
58668;BME280;59852;43.086;25.634;2023-04-29T05:25:24;99049.16;;;6.53;72.29
58668;BME280;59852;43.086;25.634;2023-04-29T05:27:49;99049.72;;;7.10;72.48
58668;BME280;59852;43.086;25.634;2023-04-29T05:30:15;99046.63;;;7.19;71.91
58668;BME280;59852;43.086;25.634;2023-04-29T05:32:42;99044.69;;;6.89;70.88
58668;BME280;59852;43.086;25.634;2023-04-29T05:35:09;99043.13;;;7.03;71.44
58668;BME280;59852;43.086;25.634;2023-04-29T05:37:34;99039.19;;;7.29;71.15
58668;BME280;59852;43.086;25.634;2023-04-29T05:40:00;99035.34;;;7.03;71.13
58668;BME280;59852;43.086;25.634;2023-04-29T05:42:26;99032.47;;;6.92;71.69
58668;BME280;59852;43.086;25.634;2023-04-29T05:44:51;99040.16;;;7.10;72.47
58668;BME280;59852;43.086;25.634;2023-04-29T05:47:17;99022.72;;;7.44;70.96
58668;BME280;59852;43.086;25.634;2023-04-29T05:49:42;99023.66;;;7.43;71.04
58668;BME280;59852;43.086;25.634;2023-04-29T05:52:08;99029.53;;;7.62;70.59
58668;BME280;59852;43.086;25.634;2023-04-29T05:54:33;99024.25;;;7.64;70.47
58668;BME280;59852;43.086;25.634;2023-04-29T05:56:59;99025.41;;;7.74;70.74
58668;BME280;59852;43.086;25.634;2023-04-29T05:59:28;99027.91;;;7.12;71.06
58668;BME280;59852;43.086;25.634;2023-04-29T06:01:53;99020.63;;;7.82;69.71
58668;BME280;59852;43.086;25.634;2023-04-29T06:04:18;99026.81;;;8.11;69.30
58668;BME280;59852;43.086;25.634;2023-04-29T06:06:44;99023.06;;;8.31;68.36
58668;BME280;59852;43.086;25.634;2023-04-29T06:09:09;99029.47;;;8.41;67.97
58668;BME280;59852;43.086;25.634;2023-04-29T06:11:34;99016.94;;;8.62;68.20
58668;BME280;59852;43.086;25.634;2023-04-29T06:14:00;99021.97;;;8.65;68.41
58668;BME280;59852;43.086;25.634;2023-04-29T06:16:25;99024.03;;;8.60;67.87
58668;BME280;59852;43.086;25.634;2023-04-29T06:18:51;99014.88;;;8.53;67.46
58668;BME280;59852;43.086;25.634;2023-04-29T06:21:16;99018.81;;;8.60;67.72
58668;BME280;59852;43.086;25.634;2023-04-29T06:23:41;99013.00;;;8.25;68.71
58668;BME280;59852;43.086;25.634;2023-04-29T06:26:07;99014.31;;;8.48;68.17
58668;BME280;59852;43.086;25.634;2023-04-29T06:28:32;99008.63;;;8.41;69.26
58668;BME280;59852;43.086;25.634;2023-04-29T06:30:57;99019.34;;;8.51;68.44
58668;BME280;59852;43.086;25.634;2023-04-29T06:33:23;99011.53;;;8.05;69.13
58668;BME280;59852;43.086;25.634;2023-04-29T06:35:48;99000.38;;;8.33;68.78
58668;BME280;59852;43.086;25.634;2023-04-29T06:38:13;99015.13;;;8.78;68.22
58668;BME280;59852;43.086;25.634;2023-04-29T06:40:39;99005.72;;;9.18;66.70
58668;BME280;59852;43.086;25.634;2023-04-29T06:43:04;99003.44;;;9.41;66.18
58668;BME280;59852;43.086;25.634;2023-04-29T06:45:29;99005.94;;;9.57;65.64
58668;BME280;59852;43.086;25.634;2023-04-29T06:47:55;98996.84;;;9.76;65.19
58668;BME280;59852;43.086;25.634;2023-04-29T06:50:20;98999.72;;;9.86;65.24
58668;BME280;59852;43.086;25.634;2023-04-29T06:52:46;98999.28;;;10.19;61.92
58668;BME280;59852;43.086;25.634;2023-04-29T06:55:11;98995.06;;;10.31;62.18
58668;BME280;59852;43.086;25.634;2023-04-29T06:57:36;98989.44;;;10.50;61.00
58668;BME280;59852;43.086;25.634;2023-04-29T07:00:02;98986.09;;;10.48;59.30
58668;BME280;59852;43.086;25.634;2023-04-29T07:02:28;98990.75;;;10.82;58.55
58668;BME280;59852;43.086;25.634;2023-04-29T07:04:53;98986.75;;;10.77;56.22
58668;BME280;59852;43.086;25.634;2023-04-29T07:07:19;98981.28;;;10.80;55.93
58668;BME280;59852;43.086;25.634;2023-04-29T07:09:44;98981.41;;;11.04;55.54
58668;BME280;59852;43.086;25.634;2023-04-29T07:12:10;98986.75;;;10.89;55.18
58668;BME280;59852;43.086;25.634;2023-04-29T07:14:35;98977.41;;;10.98;55.03
58668;BME280;59852;43.086;25.634;2023-04-29T07:17:01;98976.31;;;11.39;55.41
58668;BME280;59852;43.086;25.634;2023-04-29T07:19:26;98972.06;;;11.62;51.60
58668;BME280;59852;43.086;25.634;2023-04-29T07:21:52;98970.94;;;11.77;49.48
58668;BME280;59852;43.086;25.634;2023-04-29T07:24:17;98968.75;;;11.84;50.37
58668;BME280;59852;43.086;25.634;2023-04-29T07:26:43;98969.22;;;12.13;50.35
58668;BME280;59852;43.086;25.634;2023-04-29T07:29:11;98969.22;;;12.13;47.08
58668;BME280;59852;43.086;25.634;2023-04-29T07:31:36;98969.75;;;12.29;48.19
58668;BME280;59852;43.086;25.634;2023-04-29T07:34:02;98972.06;;;12.45;48.53
58668;BME280;59852;43.086;25.634;2023-04-29T07:36:27;98966.97;;;12.54;48.13
58668;BME280;59852;43.086;25.634;2023-04-29T07:38:53;98969.53;;;12.78;47.27
58668;BME280;59852;43.086;25.634;2023-04-29T07:41:19;98962.69;;;12.53;44.36
58668;BME280;59852;43.086;25.634;2023-04-29T07:43:44;98966.41;;;12.62;44.07
58668;BME280;59852;43.086;25.634;2023-04-29T07:46:10;98959.25;;;12.98;43.41
58668;BME280;59852;43.086;25.634;2023-04-29T07:48:38;98959.88;;;12.90;44.67
58668;BME280;59852;43.086;25.634;2023-04-29T07:51:04;98955.69;;;12.99;42.77
58668;BME280;59852;43.086;25.634;2023-04-29T07:53:30;98951.75;;;13.04;43.87
58668;BME280;59852;43.086;25.634;2023-04-29T07:55:55;98956.19;;;13.37;44.18
58668;BME280;59852;43.086;25.634;2023-04-29T07:58:21;98960.81;;;13.45;42.64
58668;BME280;59852;43.086;25.634;2023-04-29T08:00:46;98951.94;;;13.68;42.68
58668;BME280;59852;43.086;25.634;2023-04-29T08:03:12;98943.63;;;13.84;43.09
58668;BME280;59852;43.086;25.634;2023-04-29T08:05:37;98944.28;;;13.65;41.70
58668;BME280;59852;43.086;25.634;2023-04-29T08:08:03;98933.16;;;13.73;41.10
58668;BME280;59852;43.086;25.634;2023-04-29T08:10:28;98938.22;;;13.86;42.14
58668;BME280;59852;43.086;25.634;2023-04-29T08:12:53;98933.41;;;14.02;43.91
58668;BME280;59852;43.086;25.634;2023-04-29T08:15:19;98927.19;;;14.03;44.20
58668;BME280;59852;43.086;25.634;2023-04-29T08:17:44;98934.06;;;14.36;42.91
58668;BME280;59852;43.086;25.634;2023-04-29T08:20:10;98930.03;;;14.53;44.29
58668;BME280;59852;43.086;25.634;2023-04-29T08:22:35;98930.50;;;14.58;41.69
58668;BME280;59852;43.086;25.634;2023-04-29T08:25:02;98932.66;;;14.53;41.46
58668;BME280;59852;43.086;25.634;2023-04-29T08:27:27;98934.94;;;14.57;40.79
58668;BME280;59852;43.086;25.634;2023-04-29T08:29:52;98933.13;;;14.58;42.10
58668;BME280;59852;43.086;25.634;2023-04-29T08:32:18;98924.94;;;14.19;40.33
58668;BME280;59852;43.086;25.634;2023-04-29T08:34:44;98931.88;;;14.62;42.70
58668;BME280;59852;43.086;25.634;2023-04-29T08:37:09;98917.63;;;14.44;44.08
58668;BME280;59852;43.086;25.634;2023-04-29T08:39:35;98916.88;;;14.53;45.60
58668;BME280;59852;43.086;25.634;2023-04-29T08:42:06;98923.25;;;14.81;42.69
58668;BME280;59852;43.086;25.634;2023-04-29T08:44:32;98923.13;;;14.82;42.19
58668;BME280;59852;43.086;25.634;2023-04-29T08:46:58;98913.50;;;14.72;41.44
58668;BME280;59852;43.086;25.634;2023-04-29T08:49:24;98917.72;;;14.84;42.65
58668;BME280;59852;43.086;25.634;2023-04-29T08:51:50;98915.25;;;14.92;42.24
58668;BME280;59852;43.086;25.634;2023-04-29T08:54:16;98917.59;;;15.16;42.16
58668;BME280;59852;43.086;25.634;2023-04-29T08:56:42;98910.16;;;15.40;40.70
58668;BME280;59852;43.086;25.634;2023-04-29T08:59:09;98916.44;;;15.09;38.34
58668;BME280;59852;43.086;25.634;2023-04-29T09:01:34;98912.91;;;14.38;39.86
58668;BME280;59852;43.086;25.634;2023-04-29T09:04:03;98907.16;;;14.74;41.57
58668;BME280;59852;43.086;25.634;2023-04-29T09:06:32;98901.97;;;15.43;40.59
58668;BME280;59852;43.086;25.634;2023-04-29T09:08:58;98898.22;;;14.86;40.20
58668;BME280;59852;43.086;25.634;2023-04-29T09:11:26;98908.34;;;14.91;39.55
58668;BME280;59852;43.086;25.634;2023-04-29T09:13:51;98897.03;;;15.10;39.66
58668;BME280;59852;43.086;25.634;2023-04-29T09:19:34;98895.88;;;15.53;37.75
58668;BME280;59852;43.086;25.634;2023-04-29T09:22:01;98895.94;;;15.12;39.35
58668;BME280;59852;43.086;25.634;2023-04-29T09:24:27;98896.91;;;15.81;40.76
58668;BME280;59852;43.086;25.634;2023-04-29T09:26:53;98887.63;;;15.96;40.61
58668;BME280;59852;43.086;25.634;2023-04-29T09:29:19;98888.84;;;16.01;39.58
58668;BME280;59852;43.086;25.634;2023-04-29T09:31:44;98893.38;;;15.51;39.78
58668;BME280;59852;43.086;25.634;2023-04-29T09:34:10;98892.84;;;15.57;37.99
58668;BME280;59852;43.086;25.634;2023-04-29T09:39:02;98892.59;;;16.09;38.73
58668;BME280;59852;43.086;25.634;2023-04-29T09:41:29;98880.53;;;15.96;38.04
58668;BME280;59852;43.086;25.634;2023-04-29T09:44:04;98876.59;;;16.29;39.39
58668;BME280;59852;43.086;25.634;2023-04-29T09:46:31;98884.97;;;15.86;38.76
58668;BME280;59852;43.086;25.634;2023-04-29T09:48:57;98878.81;;;15.57;37.65
58668;BME280;59852;43.086;25.634;2023-04-29T09:51:22;98875.91;;;16.27;38.85
58668;BME280;59852;43.086;25.634;2023-04-29T09:53:48;98868.47;;;15.74;36.82
58668;BME280;59852;43.086;25.634;2023-04-29T09:56:14;98872.78;;;16.42;38.91
58668;BME280;59852;43.086;25.634;2023-04-29T09:58:39;98859.72;;;16.03;37.73
58668;BME280;59852;43.086;25.634;2023-04-29T10:01:05;98862.34;;;15.93;36.47
58668;BME280;59852;43.086;25.634;2023-04-29T10:03:32;98862.38;;;16.40;37.35
58668;BME280;59852;43.086;25.634;2023-04-29T10:05:58;98856.34;;;16.57;36.63
58668;BME280;59852;43.086;25.634;2023-04-29T10:08:24;98859.16;;;15.70;35.87
58668;BME280;59852;43.086;25.634;2023-04-29T10:10:51;98855.38;;;15.83;35.75
58668;BME280;59852;43.086;25.634;2023-04-29T10:13:24;98850.91;;;16.12;37.48
58668;BME280;59852;43.086;25.634;2023-04-29T10:18:25;98852.84;;;16.20;35.58
58668;BME280;59852;43.086;25.634;2023-04-29T10:20:54;98855.06;;;16.34;35.28
58668;BME280;59852;43.086;25.634;2023-04-29T10:23:21;98847.47;;;16.02;36.07
58668;BME280;59852;43.086;25.634;2023-04-29T10:25:47;98844.09;;;16.66;37.19
58668;BME280;59852;43.086;25.634;2023-04-29T10:28:14;98851.09;;;16.95;36.33
58668;BME280;59852;43.086;25.634;2023-04-29T10:30:43;98853.13;;;16.26;34.23
58668;BME280;59852;43.086;25.634;2023-04-29T10:33:10;98853.41;;;16.33;36.06
58668;BME280;59852;43.086;25.634;2023-04-29T10:35:35;98844.97;;;15.91;34.93
58668;BME280;59852;43.086;25.634;2023-04-29T10:38:03;98847.41;;;16.31;34.00
58668;BME280;59852;43.086;25.634;2023-04-29T10:40:38;98851.16;;;16.85;35.43
58668;BME280;59852;43.086;25.634;2023-04-29T10:43:04;98849.47;;;16.84;35.11
58668;BME280;59852;43.086;25.634;2023-04-29T10:45:30;98847.91;;;15.88;34.95
58668;BME280;59852;43.086;25.634;2023-04-29T10:50:33;98838.41;;;16.71;34.16
58668;BME280;59852;43.086;25.634;2023-04-29T10:53:02;98847.88;;;16.63;36.61
58668;BME280;59852;43.086;25.634;2023-04-29T10:55:28;98842.75;;;15.47;35.52
58668;BME280;59852;43.086;25.634;2023-04-29T10:57:54;98843.53;;;16.35;36.80
58668;BME280;59852;43.086;25.634;2023-04-29T11:00:26;98833.13;;;16.98;34.65
58668;BME280;59852;43.086;25.634;2023-04-29T11:03:04;98831.38;;;16.89;34.94
58668;BME280;59852;43.086;25.634;2023-04-29T11:08:08;98835.50;;;17.01;34.53
58668;BME280;59852;43.086;25.634;2023-04-29T11:10:36;98831.13;;;17.28;36.24
58668;BME280;59852;43.086;25.634;2023-04-29T11:13:22;98836.28;;;16.84;37.27
58668;BME280;59852;43.086;25.634;2023-04-29T11:15:49;98825.28;;;17.06;34.02
58668;BME280;59852;43.086;25.634;2023-04-29T11:18:15;98838.44;;;17.16;34.37
58668;BME280;59852;43.086;25.634;2023-04-29T11:23:24;98831.44;;;17.25;33.85
58668;BME280;59852;43.086;25.634;2023-04-29T11:25:49;98826.84;;;16.99;33.66
58668;BME280;59852;43.086;25.634;2023-04-29T11:28:15;98830.47;;;17.26;34.32
58668;BME280;59852;43.086;25.634;2023-04-29T11:30:41;98826.53;;;17.47;33.22
58668;BME280;59852;43.086;25.634;2023-04-29T11:33:07;98824.31;;;17.07;34.35
58668;BME280;59852;43.086;25.634;2023-04-29T11:35:33;98826.22;;;16.50;33.05
58668;BME280;59852;43.086;25.634;2023-04-29T11:37:58;98815.00;;;16.85;35.48
58668;BME280;59852;43.086;25.634;2023-04-29T11:40:24;98817.03;;;17.55;35.62
58668;BME280;59852;43.086;25.634;2023-04-29T11:42:49;98814.75;;;17.95;34.42
58668;BME280;59852;43.086;25.634;2023-04-29T11:45:18;98816.94;;;17.46;32.88
58668;BME280;59852;43.086;25.634;2023-04-29T11:47:44;98809.72;;;17.31;31.86
58668;BME280;59852;43.086;25.634;2023-04-29T11:50:11;98807.13;;;16.76;33.19
58668;BME280;59852;43.086;25.634;2023-04-29T11:52:39;98808.50;;;17.61;32.58
58668;BME280;59852;43.086;25.634;2023-04-29T11:55:08;98803.22;;;18.04;33.60
58668;BME280;59852;43.086;25.634;2023-04-29T11:57:34;98801.22;;;16.54;34.31
58668;BME280;59852;43.086;25.634;2023-04-29T12:00:00;98791.56;;;17.36;33.62
58668;BME280;59852;43.086;25.634;2023-04-29T12:02:32;98787.72;;;17.12;33.29
58668;BME280;59852;43.086;25.634;2023-04-29T12:05:04;98794.69;;;18.11;34.54
58668;BME280;59852;43.086;25.634;2023-04-29T12:07:30;98788.97;;;17.80;33.09
58668;BME280;59852;43.086;25.634;2023-04-29T12:09:56;98786.63;;;18.20;32.39
58668;BME280;59852;43.086;25.634;2023-04-29T12:12:25;98786.81;;;17.75;33.38
58668;BME280;59852;43.086;25.634;2023-04-29T12:14:51;98786.78;;;17.57;33.91
58668;BME280;59852;43.086;25.634;2023-04-29T12:17:17;98783.47;;;17.91;33.89
58668;BME280;59852;43.086;25.634;2023-04-29T12:19:43;98786.09;;;17.91;34.06
58668;BME280;59852;43.086;25.634;2023-04-29T12:22:08;98769.59;;;18.23;32.34
58668;BME280;59852;43.086;25.634;2023-04-29T12:24:37;98774.34;;;18.11;33.24
58668;BME280;59852;43.086;25.634;2023-04-29T12:27:06;98761.16;;;17.93;33.08
58668;BME280;59852;43.086;25.634;2023-04-29T12:29:32;98764.50;;;17.77;33.43
58668;BME280;59852;43.086;25.634;2023-04-29T12:31:57;98760.53;;;17.02;33.95
58668;BME280;59852;43.086;25.634;2023-04-29T12:34:29;98756.88;;;17.57;33.01
58668;BME280;59852;43.086;25.634;2023-04-29T12:36:55;98756.81;;;17.48;32.49
58668;BME280;59852;43.086;25.634;2023-04-29T12:39:22;98752.06;;;17.16;32.70
58668;BME280;59852;43.086;25.634;2023-04-29T12:41:47;98751.09;;;17.79;33.69
58668;BME280;59852;43.086;25.634;2023-04-29T12:44:13;98749.06;;;17.91;33.23
58668;BME280;59852;43.086;25.634;2023-04-29T12:46:40;98744.53;;;17.83;32.70
58668;BME280;59852;43.086;25.634;2023-04-29T12:49:05;98746.97;;;17.76;32.77
58668;BME280;59852;43.086;25.634;2023-04-29T12:51:32;98745.22;;;17.85;32.54
58668;BME280;59852;43.086;25.634;2023-04-29T12:53:58;98742.81;;;17.74;31.75
58668;BME280;59852;43.086;25.634;2023-04-29T12:56:24;98736.84;;;17.98;31.65
58668;BME280;59852;43.086;25.634;2023-04-29T12:58:50;98734.47;;;17.69;31.89
58668;BME280;59852;43.086;25.634;2023-04-29T13:01:15;98730.88;;;17.96;31.58
58668;BME280;59852;43.086;25.634;2023-04-29T13:03:41;98717.31;;;17.91;33.05
58668;BME280;59852;43.086;25.634;2023-04-29T13:06:06;98725.75;;;18.28;33.60
58668;BME280;59852;43.086;25.634;2023-04-29T13:08:32;98716.66;;;18.23;32.63
58668;BME280;59852;43.086;25.634;2023-04-29T13:10:58;98717.97;;;17.93;32.33
58668;BME280;59852;43.086;25.634;2023-04-29T13:13:23;98720.72;;;17.83;33.03
58668;BME280;59852;43.086;25.634;2023-04-29T13:15:49;98718.34;;;17.54;33.19
58668;BME280;59852;43.086;25.634;2023-04-29T13:18:14;98712.81;;;17.65;32.51
58668;BME280;59852;43.086;25.634;2023-04-29T13:20:40;98709.78;;;17.16;34.17
58668;BME280;59852;43.086;25.634;2023-04-29T13:23:06;98719.84;;;17.74;33.20